sensor_id;sensor_type;location;lat;lon;timestamp;pressure;altitude;pressure_sealevel;temperature;humidity
596;BME280;19946;49.306;11.350;2023-01-28T00:00:55;96833.41;;;-2.79;100.00
596;BME280;19946;49.306;11.350;2023-01-28T00:03:55;96844.22;;;-2.71;100.00
596;BME280;19946;49.306;11.350;2023-01-28T00:06:56;96783.66;;;-3.14;100.00
596;BME280;19946;49.306;11.350;2023-01-28T00:09:56;96817.72;;;-2.92;100.00
596;BME280;19946;49.306;11.350;2023-01-28T00:12:56;96797.69;;;-3.03;100.00
596;BME280;19946;49.306;11.350;2023-01-28T00:15:59;96834.19;;;-2.76;100.00
596;BME280;19946;49.306;11.350;2023-01-28T00:18:59;96713.59;;;-3.46;100.00
596;BME280;19946;49.306;11.350;2023-01-28T00:21:59;96840.69;;;-2.67;100.00
596;BME280;19946;49.306;11.350;2023-01-28T00:25:00;96770.03;;;-3.10;100.00
596;BME280;19946;49.306;11.350;2023-01-28T00:28:01;96748.31;;;-3.19;100.00
596;BME280;19946;49.306;11.350;2023-01-28T00:31:08;96792.22;;;-2.86;100.00
596;BME280;19946;49.306;11.350;2023-01-28T00:34:09;96779.59;;;-2.89;100.00
596;BME280;19946;49.306;11.350;2023-01-28T00:37:10;96715.66;;;-3.29;100.00
596;BME280;19946;49.306;11.350;2023-01-28T00:40:10;96771.47;;;-3.00;100.00
596;BME280;19946;49.306;11.350;2023-01-28T00:43:11;96709.28;;;-3.44;100.00
596;BME280;19946;49.306;11.350;2023-01-28T00:46:11;96844.47;;;-2.49;100.00
596;BME280;19946;49.306;11.350;2023-01-28T00:49:13;96699.72;;;-3.33;100.00
596;BME280;19946;49.306;11.350;2023-01-28T00:52:14;96831.03;;;-2.53;100.00
596;BME280;19946;49.306;11.350;2023-01-28T00:55:15;96794.38;;;-2.72;100.00
596;BME280;19946;49.306;11.350;2023-01-28T00:58:17;96835.19;;;-2.50;100.00
596;BME280;19946;49.306;11.350;2023-01-28T01:01:21;96846.00;;;-2.44;100.00
596;BME280;19946;49.306;11.350;2023-01-28T01:04:21;96813.94;;;-2.77;100.00
596;BME280;19946;49.306;11.350;2023-01-28T01:07:28;96864.88;;;-2.54;100.00
596;BME280;19946;49.306;11.350;2023-01-28T01:10:33;96790.00;;;-2.98;100.00
596;BME280;19946;49.306;11.350;2023-01-28T01:13:34;96857.28;;;-2.55;100.00
596;BME280;19946;49.306;11.350;2023-01-28T01:16:35;96874.13;;;-2.53;100.00
596;BME280;19946;49.306;11.350;2023-01-28T01:19:37;96854.94;;;-2.62;100.00
596;BME280;19946;49.306;11.350;2023-01-28T01:22:38;96868.28;;;-2.55;100.00
596;BME280;19946;49.306;11.350;2023-01-28T01:25:38;96813.34;;;-2.87;100.00
596;BME280;19946;49.306;11.350;2023-01-28T01:28:39;96847.72;;;-2.77;100.00
596;BME280;19946;49.306;11.350;2023-01-28T01:31:39;96706.78;;;-3.46;100.00
596;BME280;19946;49.306;11.350;2023-01-28T01:34:40;96865.63;;;-2.50;100.00
596;BME280;19946;49.306;11.350;2023-01-28T01:37:42;96780.94;;;-3.07;100.00
596;BME280;19946;49.306;11.350;2023-01-28T01:40:43;96872.38;;;-2.49;100.00
596;BME280;19946;49.306;11.350;2023-01-28T01:43:50;96777.56;;;-3.07;100.00
596;BME280;19946;49.306;11.350;2023-01-28T01:46:50;96871.72;;;-2.58;100.00
596;BME280;19946;49.306;11.350;2023-01-28T01:49:51;96845.91;;;-2.72;100.00
596;BME280;19946;49.306;11.350;2023-01-28T01:52:56;96848.50;;;-2.75;100.00
596;BME280;19946;49.306;11.350;2023-01-28T01:56:00;96800.09;;;-2.97;100.00
596;BME280;19946;49.306;11.350;2023-01-28T01:59:02;96874.06;;;-2.50;100.00
596;BME280;19946;49.306;11.350;2023-01-28T02:02:06;96884.38;;;-2.58;100.00
596;BME280;19946;49.306;11.350;2023-01-28T02:05:08;96879.13;;;-2.50;100.00
596;BME280;19946;49.306;11.350;2023-01-28T02:08:10;96896.03;;;-2.49;100.00
596;BME280;19946;49.306;11.350;2023-01-28T02:11:29;96892.59;;;-2.48;100.00
596;BME280;19946;49.306;11.350;2023-01-28T02:14:34;96875.94;;;-2.58;100.00
596;BME280;19946;49.306;11.350;2023-01-28T02:17:36;96880.91;;;-2.53;100.00
596;BME280;19946;49.306;11.350;2023-01-28T02:28:18;96902.06;;;-2.54;100.00
596;BME280;19946;49.306;11.350;2023-01-28T02:31:39;96817.88;;;-2.98;100.00
596;BME280;19946;49.306;11.350;2023-01-28T02:34:46;96807.59;;;-2.92;100.00
596;BME280;19946;49.306;11.350;2023-01-28T02:37:58;96817.78;;;-2.95;100.00
596;BME280;19946;49.306;11.350;2023-01-28T02:41:04;96720.38;;;-3.48;100.00
596;BME280;19946;49.306;11.350;2023-01-28T02:44:06;96808.63;;;-3.01;100.00
596;BME280;19946;49.306;11.350;2023-01-28T02:47:11;96901.81;;;-2.45;100.00
596;BME280;19946;49.306;11.350;2023-01-28T02:50:41;96846.47;;;-2.61;100.00
596;BME280;19946;49.306;11.350;2023-01-28T02:53:57;96857.47;;;-2.62;100.00
596;BME280;19946;49.306;11.350;2023-01-28T02:57:25;96909.28;;;-2.39;100.00
596;BME280;19946;49.306;11.350;2023-01-28T03:00:32;96856.69;;;-2.64;100.00
596;BME280;19946;49.306;11.350;2023-01-28T03:03:43;96821.16;;;-2.95;100.00
596;BME280;19946;49.306;11.350;2023-01-28T03:06:48;96897.78;;;-2.52;100.00
596;BME280;19946;49.306;11.350;2023-01-28T03:09:51;96801.00;;;-2.99;100.00
596;BME280;19946;49.306;11.350;2023-01-28T03:12:53;96812.72;;;-2.95;100.00
596;BME280;19946;49.306;11.350;2023-01-28T03:16:14;96895.19;;;-2.49;100.00
596;BME280;19946;49.306;11.350;2023-01-28T03:19:33;96798.13;;;-3.19;100.00
596;BME280;19946;49.306;11.350;2023-01-28T03:22:56;96867.97;;;-2.75;100.00
596;BME280;19946;49.306;11.350;2023-01-28T03:26:20;96854.72;;;-2.86;100.00
596;BME280;19946;49.306;11.350;2023-01-28T03:29:41;96778.38;;;-3.39;100.00
596;BME280;19946;49.306;11.350;2023-01-28T03:33:04;96909.19;;;-2.69;100.00
596;BME280;19946;49.306;11.350;2023-01-28T03:36:24;96897.19;;;-2.62;100.00
596;BME280;19946;49.306;11.350;2023-01-28T03:39:52;96877.31;;;-2.77;100.00
596;BME280;19946;49.306;11.350;2023-01-28T03:42:53;96897.25;;;-2.64;100.00
596;BME280;19946;49.306;11.350;2023-01-28T03:46:06;96833.22;;;-3.04;100.00
596;BME280;19946;49.306;11.350;2023-01-28T03:49:07;96909.03;;;-2.63;100.00
596;BME280;19946;49.306;11.350;2023-01-28T03:52:07;96813.31;;;-3.18;100.00
596;BME280;19946;49.306;11.350;2023-01-28T03:55:08;96913.09;;;-2.57;100.00
596;BME280;19946;49.306;11.350;2023-01-28T03:58:17;96892.31;;;-2.70;100.00
596;BME280;19946;49.306;11.350;2023-01-28T04:01:19;96930.81;;;-2.55;100.00
596;BME280;19946;49.306;11.350;2023-01-28T04:04:20;96929.13;;;-2.55;100.00
596;BME280;19946;49.306;11.350;2023-01-28T04:07:25;96820.22;;;-3.24;100.00
596;BME280;19946;49.306;11.350;2023-01-28T04:10:51;96924.28;;;-2.64;100.00
596;BME280;19946;49.306;11.350;2023-01-28T04:14:02;96892.53;;;-2.79;100.00
596;BME280;19946;49.306;11.350;2023-01-28T04:17:14;96933.41;;;-2.57;100.00
596;BME280;19946;49.306;11.350;2023-01-28T04:20:14;96817.69;;;-3.24;100.00
596;BME280;19946;49.306;11.350;2023-01-28T04:23:15;96833.63;;;-3.21;100.00
596;BME280;19946;49.306;11.350;2023-01-28T04:26:15;96905.06;;;-2.73;100.00
596;BME280;19946;49.306;11.350;2023-01-28T04:29:16;96942.59;;;-2.53;100.00
596;BME280;19946;49.306;11.350;2023-01-28T04:32:17;96895.09;;;-2.80;100.00
596;BME280;19946;49.306;11.350;2023-01-28T04:35:35;96938.38;;;-2.52;100.00
596;BME280;19946;49.306;11.350;2023-01-28T04:38:55;96950.78;;;-2.42;100.00
596;BME280;19946;49.306;11.350;2023-01-28T04:42:21;96875.03;;;-2.88;100.00
596;BME280;19946;49.306;11.350;2023-01-28T04:45:31;96940.03;;;-2.51;100.00
596;BME280;19946;49.306;11.350;2023-01-28T04:48:45;96933.25;;;-2.51;100.00
596;BME280;19946;49.306;11.350;2023-01-28T04:52:04;96952.44;;;-2.41;100.00
596;BME280;19946;49.306;11.350;2023-01-28T04:55:14;96867.50;;;-2.91;100.00
596;BME280;19946;49.306;11.350;2023-01-28T04:58:14;96823.44;;;-3.18;100.00
596;BME280;19946;49.306;11.350;2023-01-28T05:01:17;96944.78;;;-2.39;100.00
596;BME280;19946;49.306;11.350;2023-01-28T05:04:17;96964.16;;;-2.37;100.00
596;BME280;19946;49.306;11.350;2023-01-28T05:07:17;96896.78;;;-2.79;100.00
596;BME280;19946;49.306;11.350;2023-01-28T05:10:18;96875.00;;;-2.86;100.00
596;BME280;19946;49.306;11.350;2023-01-28T05:13:18;96951.56;;;-2.40;100.00
596;BME280;19946;49.306;11.350;2023-01-28T05:16:19;96957.50;;;-2.41;100.00
596;BME280;19946;49.306;11.350;2023-01-28T05:19:19;96816.09;;;-3.28;100.00
596;BME280;19946;49.306;11.350;2023-01-28T05:22:20;96957.34;;;-2.35;100.00
596;BME280;19946;49.306;11.350;2023-01-28T05:25:43;96880.84;;;-2.83;100.00
596;BME280;19946;49.306;11.350;2023-01-28T05:28:44;96939.03;;;-2.46;100.00
596;BME280;19946;49.306;11.350;2023-01-28T05:31:46;96878.34;;;-2.84;100.00
596;BME280;19946;49.306;11.350;2023-01-28T05:34:47;96959.06;;;-2.37;100.00
596;BME280;19946;49.306;11.350;2023-01-28T05:37:48;96959.88;;;-2.35;100.00
596;BME280;19946;49.306;11.350;2023-01-28T05:40:50;96878.19;;;-2.80;100.00
596;BME280;19946;49.306;11.350;2023-01-28T05:43:51;96964.00;;;-2.31;100.00
596;BME280;19946;49.306;11.350;2023-01-28T05:47:08;96968.22;;;-2.30;100.00
596;BME280;19946;49.306;11.350;2023-01-28T05:50:38;96953.94;;;-2.34;100.00
596;BME280;19946;49.306;11.350;2023-01-28T05:53:45;96923.19;;;-2.54;100.00
596;BME280;19946;49.306;11.350;2023-01-28T05:56:45;96805.91;;;-3.25;100.00
596;BME280;19946;49.306;11.350;2023-01-28T05:59:47;96838.47;;;-3.12;100.00
596;BME280;19946;49.306;11.350;2023-01-28T06:02:50;96867.63;;;-2.96;100.00
596;BME280;19946;49.306;11.350;2023-01-28T06:05:50;96965.84;;;-2.37;100.00
596;BME280;19946;49.306;11.350;2023-01-28T06:08:50;96968.34;;;-2.36;100.00
596;BME280;19946;49.306;11.350;2023-01-28T06:11:58;96975.03;;;-2.32;100.00
596;BME280;19946;49.306;11.350;2023-01-28T06:14:59;96973.13;;;-2.24;100.00
596;BME280;19946;49.306;11.350;2023-01-28T06:18:19;96914.25;;;-2.69;100.00
596;BME280;19946;49.306;11.350;2023-01-28T06:21:21;96842.78;;;-3.15;100.00
596;BME280;19946;49.306;11.350;2023-01-28T06:24:21;96921.28;;;-2.80;100.00
596;BME280;19946;49.306;11.350;2023-01-28T06:27:22;96979.28;;;-2.34;100.00
596;BME280;19946;49.306;11.350;2023-01-28T06:30:22;96997.84;;;-2.32;100.00
596;BME280;19946;49.306;11.350;2023-01-28T06:33:23;96991.91;;;-2.31;100.00
596;BME280;19946;49.306;11.350;2023-01-28T06:36:23;97001.19;;;-2.30;100.00
596;BME280;19946;49.306;11.350;2023-01-28T06:39:24;96908.78;;;-2.86;100.00
596;BME280;19946;49.306;11.350;2023-01-28T06:42:26;96956.88;;;-2.49;100.00
596;BME280;19946;49.306;11.350;2023-01-28T06:45:26;96940.53;;;-2.71;100.00
596;BME280;19946;49.306;11.350;2023-01-28T06:48:27;97007.09;;;-2.29;100.00
596;BME280;19946;49.306;11.350;2023-01-28T06:51:27;97015.50;;;-2.27;100.00
596;BME280;19946;49.306;11.350;2023-01-28T06:54:28;97019.75;;;-2.28;100.00
596;BME280;19946;49.306;11.350;2023-01-28T06:57:28;97014.69;;;-2.29;100.00
596;BME280;19946;49.306;11.350;2023-01-28T07:00:28;96958.28;;;-2.71;100.00
596;BME280;19946;49.306;11.350;2023-01-28T07:03:29;97020.72;;;-2.33;100.00
596;BME280;19946;49.306;11.350;2023-01-28T07:06:29;97011.63;;;-2.42;100.00
596;BME280;19946;49.306;11.350;2023-01-28T07:09:30;97035.94;;;-2.33;100.00
596;BME280;19946;49.306;11.350;2023-01-28T07:12:30;96995.91;;;-2.56;100.00
596;BME280;19946;49.306;11.350;2023-01-28T07:15:32;97040.91;;;-2.29;100.00
596;BME280;19946;49.306;11.350;2023-01-28T07:18:32;96916.75;;;-3.01;100.00
596;BME280;19946;49.306;11.350;2023-01-28T07:21:32;97039.06;;;-2.24;100.00
596;BME280;19946;49.306;11.350;2023-01-28T07:24:33;97028.34;;;-2.35;100.00
596;BME280;19946;49.306;11.350;2023-01-28T07:27:34;97045.22;;;-2.32;100.00
596;BME280;19946;49.306;11.350;2023-01-28T07:30:34;97037.50;;;-2.28;100.00
596;BME280;19946;49.306;11.350;2023-01-28T07:33:34;96991.81;;;-2.60;100.00
596;BME280;19946;49.306;11.350;2023-01-28T07:36:35;96957.50;;;-2.75;100.00
596;BME280;19946;49.306;11.350;2023-01-28T07:39:35;96945.97;;;-2.86;100.00
596;BME280;19946;49.306;11.350;2023-01-28T07:42:36;97021.63;;;-2.36;100.00
596;BME280;19946;49.306;11.350;2023-01-28T07:45:39;97045.19;;;-2.31;100.00
596;BME280;19946;49.306;11.350;2023-01-28T07:48:39;97027.88;;;-2.49;100.00
596;BME280;19946;49.306;11.350;2023-01-28T07:51:39;96995.78;;;-2.50;100.00
596;BME280;19946;49.306;11.350;2023-01-28T07:54:40;97023.53;;;-2.45;100.00
596;BME280;19946;49.306;11.350;2023-01-28T07:57:52;96822.06;;;-3.67;100.00
596;BME280;19946;49.306;11.350;2023-01-28T08:00:58;97061.50;;;-2.07;100.00
596;BME280;19946;49.306;11.350;2023-01-28T08:03:58;97046.44;;;-2.14;100.00
596;BME280;19946;49.306;11.350;2023-01-28T08:06:58;96977.66;;;-2.70;100.00
596;BME280;19946;49.306;11.350;2023-01-28T08:09:59;97015.09;;;-2.46;100.00
596;BME280;19946;49.306;11.350;2023-01-28T08:12:59;97053.34;;;-2.19;100.00
596;BME280;19946;49.306;11.350;2023-01-28T08:16:00;97058.19;;;-2.10;100.00
596;BME280;19946;49.306;11.350;2023-01-28T08:19:00;97065.59;;;-2.03;100.00
596;BME280;19946;49.306;11.350;2023-01-28T08:22:01;96996.63;;;-2.49;100.00
596;BME280;19946;49.306;11.350;2023-01-28T08:25:02;97052.28;;;-2.11;100.00
596;BME280;19946;49.306;11.350;2023-01-28T08:28:04;97088.84;;;-1.84;100.00
596;BME280;19946;49.306;11.350;2023-01-28T08:31:07;96958.97;;;-2.66;100.00
596;BME280;19946;49.306;11.350;2023-01-28T08:34:08;96992.22;;;-2.43;100.00
596;BME280;19946;49.306;11.350;2023-01-28T08:37:08;97052.50;;;-2.18;100.00
596;BME280;19946;49.306;11.350;2023-01-28T08:40:09;96950.53;;;-2.67;100.00
596;BME280;19946;49.306;11.350;2023-01-28T08:43:10;97065.53;;;-2.00;100.00
596;BME280;19946;49.306;11.350;2023-01-28T08:46:10;97075.59;;;-1.95;100.00
596;BME280;19946;49.306;11.350;2023-01-28T08:49:10;97050.66;;;-2.13;100.00
596;BME280;19946;49.306;11.350;2023-01-28T08:52:11;96998.81;;;-2.37;100.00
596;BME280;19946;49.306;11.350;2023-01-28T08:55:12;97047.03;;;-2.05;100.00
596;BME280;19946;49.306;11.350;2023-01-28T08:58:15;97027.81;;;-2.13;100.00
596;BME280;19946;49.306;11.350;2023-01-28T09:01:15;97077.16;;;-1.91;100.00
596;BME280;19946;49.306;11.350;2023-01-28T09:04:16;97030.31;;;-2.12;100.00
596;BME280;19946;49.306;11.350;2023-01-28T09:07:16;96925.53;;;-2.80;100.00
596;BME280;19946;49.306;11.350;2023-01-28T09:10:17;96961.66;;;-2.71;100.00
596;BME280;19946;49.306;11.350;2023-01-28T09:13:19;97074.84;;;-2.00;100.00
596;BME280;19946;49.306;11.350;2023-01-28T09:16:20;96975.63;;;-2.56;100.00
596;BME280;19946;49.306;11.350;2023-01-28T09:19:20;97074.84;;;-2.00;100.00
596;BME280;19946;49.306;11.350;2023-01-28T09:22:20;97108.91;;;-1.75;100.00
596;BME280;19946;49.306;11.350;2023-01-28T09:25:21;97104.78;;;-1.79;100.00
596;BME280;19946;49.306;11.350;2023-01-28T09:28:21;97016.28;;;-2.25;100.00
596;BME280;19946;49.306;11.350;2023-01-28T09:31:21;97034.19;;;-2.31;100.00
596;BME280;19946;49.306;11.350;2023-01-28T09:34:22;97013.97;;;-2.34;100.00
596;BME280;19946;49.306;11.350;2023-01-28T09:37:23;97075.50;;;-1.92;100.00
596;BME280;19946;49.306;11.350;2023-01-28T09:40:56;97100.63;;;-1.83;100.00
596;BME280;19946;49.306;11.350;2023-01-28T09:44:12;97122.47;;;-1.76;100.00
596;BME280;19946;49.306;11.350;2023-01-28T09:47:23;97103.53;;;-1.97;100.00
596;BME280;19946;49.306;11.350;2023-01-28T09:50:34;97036.72;;;-2.31;100.00
596;BME280;19946;49.306;11.350;2023-01-28T09:53:42;97090.19;;;-2.05;100.00
596;BME280;19946;49.306;11.350;2023-01-28T09:56:45;97122.72;;;-1.85;100.00
596;BME280;19946;49.306;11.350;2023-01-28T09:59:47;97039.94;;;-2.25;100.00
596;BME280;19946;49.306;11.350;2023-01-28T10:03:18;97095.09;;;-1.97;100.00
596;BME280;19946;49.306;11.350;2023-01-28T10:06:27;97057.69;;;-2.25;100.00
596;BME280;19946;49.306;11.350;2023-01-28T10:09:45;97055.91;;;-2.19;100.00
596;BME280;19946;49.306;11.350;2023-01-28T10:12:54;97044.03;;;-2.19;100.00
596;BME280;19946;49.306;11.350;2023-01-28T10:17:20;97013.91;;;-2.31;100.00
596;BME280;19946;49.306;11.350;2023-01-28T10:20:05;97043.94;;;-2.16;100.00
596;BME280;19946;49.306;11.350;2023-01-28T10:23:21;97119.50;;;-1.59;100.00
596;BME280;19946;49.306;11.350;2023-01-28T10:26:26;97121.19;;;-1.60;100.00
596;BME280;19946;49.306;11.350;2023-01-28T10:29:32;97022.69;;;-2.10;100.00
596;BME280;19946;49.306;11.350;2023-01-28T10:32:37;97124.75;;;-1.34;100.00
596;BME280;19946;49.306;11.350;2023-01-28T10:35:41;97062.13;;;-1.66;100.00
596;BME280;19946;49.306;11.350;2023-01-28T10:38:42;97124.88;;;-1.39;100.00
596;BME280;19946;49.306;11.350;2023-01-28T10:41:43;97008.81;;;-1.97;100.00
596;BME280;19946;49.306;11.350;2023-01-28T10:44:44;97091.00;;;-1.39;100.00
596;BME280;19946;49.306;11.350;2023-01-28T10:47:53;97015.44;;;-1.93;100.00
596;BME280;19946;49.306;11.350;2023-01-28T10:50:58;96980.22;;;-2.05;100.00
596;BME280;19946;49.306;11.350;2023-01-28T10:54:01;97017.53;;;-2.07;100.00
596;BME280;19946;49.306;11.350;2023-01-28T10:57:04;97038.28;;;-1.93;100.00
596;BME280;19946;49.306;11.350;2023-01-28T11:00:10;97041.66;;;-1.93;100.00
596;BME280;19946;49.306;11.350;2023-01-28T11:03:17;97103.22;;;-1.52;100.00
596;BME280;19946;49.306;11.350;2023-01-28T11:06:26;97101.59;;;-1.55;100.00
596;BME280;19946;49.306;11.350;2023-01-28T11:09:35;97051.63;;;-1.85;100.00
596;BME280;19946;49.306;11.350;2023-01-28T11:12:36;96921.69;;;-2.61;100.00
596;BME280;19946;49.306;11.350;2023-01-28T11:15:44;97103.16;;;-1.51;100.00
596;BME280;19946;49.306;11.350;2023-01-28T11:18:59;97132.88;;;-1.53;100.00
596;BME280;19946;49.306;11.350;2023-01-28T11:22:03;97094.63;;;-1.79;100.00
596;BME280;19946;49.306;11.350;2023-01-28T11:25:14;97100.25;;;-1.68;100.00
596;BME280;19946;49.306;11.350;2023-01-28T11:28:18;97119.16;;;-1.47;100.00
596;BME280;19946;49.306;11.350;2023-01-28T11:31:22;97105.88;;;-1.57;100.00
596;BME280;19946;49.306;11.350;2023-01-28T11:34:28;96996.19;;;-2.33;100.00
596;BME280;19946;49.306;11.350;2023-01-28T11:37:29;96965.50;;;-2.56;100.00
596;BME280;19946;49.306;11.350;2023-01-28T11:40:30;97092.13;;;-1.80;100.00
596;BME280;19946;49.306;11.350;2023-01-28T11:43:31;97082.72;;;-1.77;100.00
596;BME280;19946;49.306;11.350;2023-01-28T11:47:28;97120.88;;;-1.48;100.00
596;BME280;19946;49.306;11.350;2023-01-28T11:50:29;97118.19;;;-1.41;100.00
596;BME280;19946;49.306;11.350;2023-01-28T11:53:54;97118.19;;;-1.41;100.00
596;BME280;19946;49.306;11.350;2023-01-28T11:57:13;97041.69;;;-1.94;100.00
596;BME280;19946;49.306;11.350;2023-01-28T12:00:34;97123.94;;;-1.35;100.00
596;BME280;19946;49.306;11.350;2023-01-28T12:11:24;97111.44;;;-1.12;100.00
596;BME280;19946;49.306;11.350;2023-01-28T12:14:07;97106.91;;;-1.31;100.00
596;BME280;19946;49.306;11.350;2023-01-28T12:17:18;97126.44;;;-1.33;100.00
596;BME280;19946;49.306;11.350;2023-01-28T12:20:29;97055.34;;;-1.66;100.00
596;BME280;19946;49.306;11.350;2023-01-28T12:23:53;97090.72;;;-1.60;100.00
596;BME280;19946;49.306;11.350;2023-01-28T12:26:59;97018.25;;;-2.04;100.00
596;BME280;19946;49.306;11.350;2023-01-28T12:30:14;97107.22;;;-1.43;100.00
596;BME280;19946;49.306;11.350;2023-01-28T12:40:38;97108.59;;;-1.32;100.00
596;BME280;19946;49.306;11.350;2023-01-28T12:43:48;97021.63;;;-2.03;100.00
596;BME280;19946;49.306;11.350;2023-01-28T12:46:57;97017.97;;;-1.93;100.00
596;BME280;19946;49.306;11.350;2023-01-28T12:50:14;97071.28;;;-1.61;100.00
596;BME280;19946;49.306;11.350;2023-01-28T12:53:54;97053.56;;;-1.62;100.00
596;BME280;19946;49.306;11.350;2023-01-28T12:56:57;96864.31;;;-2.98;100.00
596;BME280;19946;49.306;11.350;2023-01-28T13:03:26;97108.72;;;-1.36;100.00
596;BME280;19946;49.306;11.350;2023-01-28T13:06:39;97102.00;;;-1.39;100.00
596;BME280;19946;49.306;11.350;2023-01-28T13:09:50;96916.50;;;-2.58;100.00
596;BME280;19946;49.306;11.350;2023-01-28T13:12:52;97049.41;;;-1.65;100.00
596;BME280;19946;49.306;11.350;2023-01-28T13:15:53;97090.09;;;-1.37;100.00
596;BME280;19946;49.306;11.350;2023-01-28T13:19:04;97070.09;;;-1.49;100.00
596;BME280;19946;49.306;11.350;2023-01-28T13:22:24;97094.25;;;-1.33;100.00
596;BME280;19946;49.306;11.350;2023-01-28T13:25:26;97024.66;;;-1.89;100.00
596;BME280;19946;49.306;11.350;2023-01-28T13:28:31;97085.53;;;-1.55;100.00
596;BME280;19946;49.306;11.350;2023-01-28T13:31:37;97092.59;;;-1.35;100.00
596;BME280;19946;49.306;11.350;2023-01-28T13:34:41;97003.28;;;-1.82;100.00
596;BME280;19946;49.306;11.350;2023-01-28T13:37:44;97047.53;;;-1.60;100.00
596;BME280;19946;49.306;11.350;2023-01-28T13:40:57;97081.88;;;-1.45;100.00
596;BME280;19946;49.306;11.350;2023-01-28T13:43:59;97122.97;;;-1.31;100.00
596;BME280;19946;49.306;11.350;2023-01-28T13:50:14;97020.22;;;-1.83;100.00
596;BME280;19946;49.306;11.350;2023-01-28T14:00:14;96974.56;;;-2.15;100.00
596;BME280;19946;49.306;11.350;2023-01-28T14:03:51;97124.53;;;-1.27;100.00
596;BME280;19946;49.306;11.350;2023-01-28T14:10:33;97058.13;;;-1.75;100.00
596;BME280;19946;49.306;11.350;2023-01-28T14:17:02;97035.75;;;-1.93;100.00
596;BME280;19946;49.306;11.350;2023-01-28T14:20:37;97116.53;;;-1.42;100.00
596;BME280;19946;49.306;11.350;2023-01-28T14:23:38;97152.78;;;-1.37;100.00
596;BME280;19946;49.306;11.350;2023-01-28T14:27:04;97015.03;;;-2.09;100.00
596;BME280;19946;49.306;11.350;2023-01-28T14:30:29;97149.16;;;-1.29;100.00
596;BME280;19946;49.306;11.350;2023-01-28T14:33:34;97112.78;;;-1.62;100.00
596;BME280;19946;49.306;11.350;2023-01-28T14:36:38;97022.34;;;-2.31;100.00
596;BME280;19946;49.306;11.350;2023-01-28T14:39:49;97165.56;;;-1.40;100.00
596;BME280;19946;49.306;11.350;2023-01-28T14:42:53;97060.66;;;-2.07;100.00
596;BME280;19946;49.306;11.350;2023-01-28T14:49:19;97170.69;;;-1.42;100.00
596;BME280;19946;49.306;11.350;2023-01-28T14:55:49;97190.91;;;-1.39;100.00
596;BME280;19946;49.306;11.350;2023-01-28T14:58:58;97075.84;;;-2.06;100.00
596;BME280;19946;49.306;11.350;2023-01-28T15:01:59;97183.34;;;-1.40;100.00
596;BME280;19946;49.306;11.350;2023-01-28T15:05:09;97040.06;;;-2.29;100.00
596;BME280;19946;49.306;11.350;2023-01-28T15:08:20;97147.53;;;-1.62;100.00
596;BME280;19946;49.306;11.350;2023-01-28T15:11:23;97099.06;;;-1.87;100.00
596;BME280;19946;49.306;11.350;2023-01-28T15:14:28;97176.47;;;-1.37;100.00
596;BME280;19946;49.306;11.350;2023-01-28T15:17:29;97195.97;;;-1.37;100.00
596;BME280;19946;49.306;11.350;2023-01-28T15:20:30;96982.66;;;-2.67;100.00
596;BME280;19946;49.306;11.350;2023-01-28T15:23:33;97191.28;;;-1.53;100.00
596;BME280;19946;49.306;11.350;2023-01-28T15:26:34;97041.53;;;-2.54;100.00
596;BME280;19946;49.306;11.350;2023-01-28T15:29:36;97016.47;;;-2.68;100.00
596;BME280;19946;49.306;11.350;2023-01-28T15:32:36;97016.69;;;-2.76;100.00
596;BME280;19946;49.306;11.350;2023-01-28T15:35:37;97175.97;;;-1.84;100.00
596;BME280;19946;49.306;11.350;2023-01-28T15:38:37;97179.56;;;-1.92;100.00
596;BME280;19946;49.306;11.350;2023-01-28T15:41:40;97147.22;;;-2.19;100.00
596;BME280;19946;49.306;11.350;2023-01-28T15:44:43;97218.00;;;-1.72;100.00
596;BME280;19946;49.306;11.350;2023-01-28T15:47:45;97017.94;;;-2.93;100.00
596;BME280;19946;49.306;11.350;2023-01-28T15:50:46;97195.56;;;-1.89;100.00
596;BME280;19946;49.306;11.350;2023-01-28T15:53:49;97095.44;;;-2.48;100.00
596;BME280;19946;49.306;11.350;2023-01-28T15:56:51;97233.31;;;-1.75;100.00
596;BME280;19946;49.306;11.350;2023-01-28T16:00:11;97150.91;;;-2.33;100.00
596;BME280;19946;49.306;11.350;2023-01-28T16:03:18;97146.00;;;-2.39;100.00
596;BME280;19946;49.306;11.350;2023-01-28T16:06:20;97231.34;;;-1.99;100.00
596;BME280;19946;49.306;11.350;2023-01-28T16:09:25;97219.00;;;-2.14;100.00
596;BME280;19946;49.306;11.350;2023-01-28T16:12:27;97113.91;;;-2.80;100.00
596;BME280;19946;49.306;11.350;2023-01-28T16:15:27;97219.81;;;-2.14;100.00
596;BME280;19946;49.306;11.350;2023-01-28T16:18:41;97086.66;;;-3.09;100.00
596;BME280;19946;49.306;11.350;2023-01-28T16:21:44;97113.22;;;-2.86;100.00
596;BME280;19946;49.306;11.350;2023-01-28T16:24:50;97240.91;;;-2.10;100.00
596;BME280;19946;49.306;11.350;2023-01-28T16:27:52;97092.75;;;-3.16;100.00
596;BME280;19946;49.306;11.350;2023-01-28T16:30:52;97155.09;;;-2.70;100.00
596;BME280;19946;49.306;11.350;2023-01-28T16:33:52;97228.69;;;-2.32;100.00
596;BME280;19946;49.306;11.350;2023-01-28T16:37:07;97132.88;;;-2.96;100.00
596;BME280;19946;49.306;11.350;2023-01-28T16:40:11;97118.75;;;-3.08;100.00
596;BME280;19946;49.306;11.350;2023-01-28T16:43:13;97213.97;;;-2.56;100.00
596;BME280;19946;49.306;11.350;2023-01-28T16:46:14;97247.84;;;-2.18;100.00
596;BME280;19946;49.306;11.350;2023-01-28T16:49:15;97213.97;;;-2.56;100.00
596;BME280;19946;49.306;11.350;2023-01-28T16:52:15;97264.19;;;-2.32;100.00
596;BME280;19946;49.306;11.350;2023-01-28T16:55:19;97173.97;;;-2.82;100.00
596;BME280;19946;49.306;11.350;2023-01-28T16:58:24;97265.81;;;-2.28;100.00
596;BME280;19946;49.306;11.350;2023-01-28T17:01:25;97256.50;;;-2.27;100.00
596;BME280;19946;49.306;11.350;2023-01-28T17:04:26;97275.38;;;-2.40;100.00
596;BME280;19946;49.306;11.350;2023-01-28T17:07:27;97170.75;;;-2.91;100.00
596;BME280;19946;49.306;11.350;2023-01-28T17:10:27;97243.50;;;-2.53;100.00
596;BME280;19946;49.306;11.350;2023-01-28T17:13:28;97251.63;;;-2.38;100.00